createdAt,value
2018-01-22T00:00:30.519Z,2.60
2018-01-22T00:01:35.472Z,2.60
2018-01-22T00:02:39.647Z,2.60
2018-01-22T00:03:44.657Z,2.60
2018-01-22T00:04:48.978Z,2.60
2018-01-22T00:05:53.182Z,2.60
2018-01-22T00:06:57.389Z,2.60
2018-01-22T00:08:01.752Z,2.60
2018-01-22T00:09:06.288Z,2.60
2018-01-22T00:10:10.473Z,2.60
2018-01-22T00:11:14.795Z,2.60
2018-01-22T00:12:19.088Z,2.60
2018-01-22T00:13:24.137Z,2.60
2018-01-22T00:14:28.381Z,2.60
2018-01-22T00:15:32.559Z,2.60
2018-01-22T00:16:36.774Z,2.60
2018-01-22T00:17:40.947Z,2.60
2018-01-22T00:18:46.099Z,2.60
2018-01-22T00:19:50.340Z,2.60
2018-01-22T00:20:54.558Z,2.60
2018-01-22T00:21:58.732Z,2.60
2018-01-22T00:23:03.756Z,2.60
2018-01-22T00:24:08.874Z,2.60
2018-01-22T00:25:13.829Z,2.60
2018-01-22T00:26:17.998Z,2.60
2018-01-22T00:27:22.221Z,2.60
2018-01-22T00:28:27.162Z,2.60
2018-01-22T00:29:32.295Z,2.60
2018-01-22T00:30:37.290Z,2.60
2018-01-22T00:31:41.510Z,2.60
2018-01-22T00:32:45.720Z,2.60
2018-01-22T00:33:49.902Z,2.60
2018-01-22T00:34:54.137Z,2.60
2018-01-22T00:35:58.349Z,2.60
2018-01-22T00:37:02.675Z,2.60
2018-01-22T00:38:06.916Z,2.60
2018-01-22T00:39:11.122Z,2.60
2018-01-22T00:40:15.440Z,2.50
2018-01-22T00:41:19.648Z,2.50
2018-01-22T00:42:24.072Z,2.60
2018-01-22T00:43:28.280Z,2.50
2018-01-22T00:44:32.468Z,2.50
2018-01-22T00:45:37.408Z,2.60
2018-01-22T00:46:41.621Z,2.60
2018-01-22T00:47:45.855Z,2.60
2018-01-22T00:48:50.154Z,2.60
2018-01-22T00:49:54.331Z,2.60
2018-01-22T00:50:59.394Z,2.60
2018-01-22T00:52:03.665Z,2.70
2018-01-22T00:53:08.329Z,2.60
2018-01-22T00:54:12.545Z,2.60
2018-01-22T00:55:16.752Z,2.60
2018-01-22T00:56:20.960Z,2.60
2018-01-22T00:57:25.255Z,2.60
2018-01-22T00:58:30.281Z,2.60
2018-01-22T00:59:35.328Z,2.60
2018-01-22T01:00:39.563Z,2.60
2018-01-22T01:01:43.777Z,2.60
2018-01-22T01:02:47.989Z,2.60
2018-01-22T01:03:52.211Z,2.70
2018-01-22T01:04:56.438Z,2.60
2018-01-22T01:06:00.800Z,2.70
2018-01-22T01:07:04.985Z,2.70
2018-01-22T01:08:09.965Z,2.70
2018-01-22T01:09:14.171Z,2.70
2018-01-22T01:10:18.377Z,2.70
2018-01-22T01:11:22.597Z,2.70
2018-01-22T01:12:26.780Z,2.70
2018-01-22T01:13:30.997Z,2.70
2018-01-22T01:14:35.222Z,2.70
2018-01-22T01:15:39.513Z,2.70
2018-01-22T01:16:43.728Z,2.70
2018-01-22T01:17:47.900Z,2.70
2018-01-22T01:18:52.101Z,2.70
2018-01-22T01:19:56.322Z,2.70
2018-01-22T01:21:00.529Z,2.70
2018-01-22T01:22:04.741Z,2.70
2018-01-22T01:23:08.941Z,2.70
2018-01-22T01:24:13.157Z,2.70
2018-01-22T01:25:17.360Z,2.70
2018-01-22T01:26:21.626Z,2.70
2018-01-22T01:27:25.840Z,2.70
2018-01-22T01:28:30.061Z,2.70
2018-01-22T01:29:34.281Z,2.80
2018-01-22T01:30:38.457Z,2.80
2018-01-22T01:31:42.799Z,2.70
2018-01-22T01:32:47.091Z,2.80
2018-01-22T01:33:51.268Z,2.80
2018-01-22T01:34:55.614Z,2.80
2018-01-22T01:35:59.807Z,2.70
2018-01-22T01:37:04.748Z,2.70
2018-01-22T01:38:08.921Z,2.70
2018-01-22T01:39:13.105Z,2.80
2018-01-22T01:40:17.320Z,2.80
2018-01-22T01:41:21.959Z,2.70
2018-01-22T01:42:26.300Z,2.70
2018-01-22T01:43:31.269Z,2.70
2018-01-22T01:44:35.475Z,2.80
2018-01-22T01:45:39.666Z,2.80
2018-01-22T01:46:43.892Z,2.80
2018-01-22T01:47:48.101Z,2.80
2018-01-22T01:49:04.253Z,2.80
2018-01-22T01:50:09.204Z,2.70
2018-01-22T01:51:13.422Z,2.70
2018-01-22T01:52:17.727Z,2.70
2018-01-22T01:53:22.044Z,2.70
2018-01-22T01:54:26.236Z,2.70
2018-01-22T01:55:31.216Z,2.70
2018-01-22T01:56:35.459Z,2.70
2018-01-22T01:57:39.702Z,2.70
2018-01-22T01:58:43.871Z,2.70
2018-01-22T01:59:48.078Z,2.70
2018-01-22T02:00:52.334Z,2.70
2018-01-22T02:01:56.572Z,2.70
2018-01-22T02:03:00.781Z,2.70
2018-01-22T02:04:05.002Z,2.70
2018-01-22T02:05:09.217Z,2.70
2018-01-22T02:06:13.455Z,2.70
2018-01-22T02:07:17.807Z,2.70
2018-01-22T02:08:22.017Z,2.70
2018-01-22T02:09:26.191Z,2.70
2018-01-22T02:10:30.372Z,2.70
2018-01-22T02:11:34.552Z,2.60
2018-01-22T02:12:39.052Z,2.70
2018-01-22T02:13:44.030Z,2.60
2018-01-22T02:14:48.250Z,2.60
2018-01-22T02:15:52.474Z,2.60
2018-01-22T02:16:56.656Z,2.60
2018-01-22T02:18:00.927Z,2.60
2018-01-22T02:19:05.150Z,2.60
2018-01-22T02:20:09.380Z,2.60
2018-01-22T02:21:13.596Z,2.60
2018-01-22T02:22:17.862Z,2.60
2018-01-22T02:23:22.833Z,2.50
2018-01-22T02:24:27.041Z,2.50
2018-01-22T02:25:31.214Z,2.50
2018-01-22T02:26:36.187Z,2.50
2018-01-22T02:27:40.393Z,2.50
2018-01-22T02:28:44.676Z,2.50
2018-01-22T02:29:48.996Z,2.50
2018-01-22T02:30:53.209Z,2.40
2018-01-22T02:31:57.500Z,2.40
2018-01-22T02:33:01.713Z,2.40
2018-01-22T02:34:06.005Z,2.40
2018-01-22T02:35:10.314Z,2.30
2018-01-22T02:36:14.496Z,2.30
2018-01-22T02:37:18.704Z,2.30
2018-01-22T02:38:22.908Z,2.30
2018-01-22T02:39:27.142Z,2.30
2018-01-22T02:40:31.331Z,2.30
2018-01-22T02:41:35.554Z,2.30
2018-01-22T02:42:40.225Z,2.30
2018-01-22T02:43:45.205Z,2.30
2018-01-22T02:44:49.435Z,2.30
2018-01-22T02:45:53.650Z,2.30
2018-01-22T02:46:57.854Z,2.30
2018-01-22T02:48:02.103Z,2.30
2018-01-22T02:49:06.313Z,2.30
2018-01-22T02:50:10.501Z,2.30
2018-01-22T02:51:15.438Z,2.30
2018-01-22T02:52:20.385Z,2.30
2018-01-22T02:53:24.805Z,2.30
2018-01-22T02:54:28.978Z,2.30
2018-01-22T02:55:33.224Z,2.30
2018-01-22T02:56:37.450Z,2.30
2018-01-22T02:57:41.636Z,2.30
2018-01-22T02:58:45.909Z,2.30
2018-01-22T02:59:50.117Z,2.30
2018-01-22T03:00:54.300Z,2.40
2018-01-22T03:01:58.502Z,2.30
2018-01-22T03:03:02.784Z,2.40
2018-01-22T03:04:07.023Z,2.30
2018-01-22T03:05:11.325Z,2.40
2018-01-22T03:06:15.537Z,2.40
2018-01-22T03:07:19.849Z,2.40
2018-01-22T03:08:24.068Z,2.40
2018-01-22T03:09:28.233Z,2.40
2018-01-22T03:10:32.433Z,2.40
2018-01-22T03:11:36.641Z,2.40
2018-01-22T03:12:42.345Z,2.40
2018-01-22T03:13:46.575Z,2.40
2018-01-22T03:14:50.749Z,2.40
2018-01-22T03:15:54.932Z,2.40
2018-01-22T03:16:59.236Z,2.40
2018-01-22T03:18:03.591Z,2.40
2018-01-22T03:19:07.987Z,2.40
2018-01-22T03:20:12.975Z,2.40
2018-01-22T03:21:17.185Z,2.40
2018-01-22T03:22:21.381Z,2.40
2018-01-22T03:23:25.579Z,2.50
2018-01-22T03:24:29.751Z,2.50
2018-01-22T03:25:34.734Z,2.50
2018-01-22T03:26:38.907Z,2.50
2018-01-22T03:27:43.194Z,2.50
2018-01-22T03:28:48.139Z,2.50
2018-01-22T03:29:53.061Z,2.50
2018-01-22T03:30:58.400Z,2.40
2018-01-22T03:32:03.382Z,2.40
2018-01-22T03:33:07.561Z,2.40
2018-01-22T03:34:11.727Z,2.40
2018-01-22T03:35:15.941Z,2.40
2018-01-22T03:36:20.176Z,2.40
2018-01-22T03:37:24.347Z,2.40
2018-01-22T03:38:28.522Z,2.40
2018-01-22T03:39:32.705Z,2.40
2018-01-22T03:40:37.673Z,2.40
2018-01-22T03:41:41.916Z,2.30
2018-01-22T03:42:46.275Z,2.30
2018-01-22T03:43:50.486Z,2.30
2018-01-22T03:44:54.681Z,2.40
2018-01-22T03:45:59.689Z,2.30
2018-01-22T03:47:03.901Z,2.30
2018-01-22T03:48:08.072Z,2.30
2018-01-22T03:49:12.277Z,2.30
2018-01-22T03:50:16.456Z,2.30
2018-01-22T03:51:20.689Z,2.30
2018-01-22T03:52:25.175Z,2.30
2018-01-22T03:53:30.141Z,2.30
2018-01-22T03:54:34.353Z,2.30
2018-01-22T03:55:38.573Z,2.30
2018-01-22T03:56:42.850Z,2.30
2018-01-22T03:57:47.068Z,2.30
2018-01-22T03:58:51.285Z,2.30
2018-01-22T03:59:55.570Z,2.30
2018-01-22T04:01:00.516Z,2.40
2018-01-22T04:02:04.749Z,2.30
2018-01-22T04:03:08.986Z,2.40
2018-01-22T04:04:13.207Z,2.30
2018-01-22T04:05:17.548Z,2.40
2018-01-22T04:06:21.762Z,2.40
2018-01-22T04:07:25.956Z,2.40
2018-01-22T04:08:30.908Z,2.30
2018-01-22T04:09:35.424Z,2.30
2018-01-22T04:10:39.715Z,2.30
2018-01-22T04:11:44.759Z,2.30
2018-01-22T04:12:48.978Z,2.30
2018-01-22T04:13:53.198Z,2.30
2018-01-22T04:14:57.437Z,2.30
2018-01-22T04:16:01.658Z,2.30
2018-01-22T04:17:06.018Z,2.30
2018-01-22T04:18:10.545Z,2.40
2018-01-22T04:19:15.509Z,2.30
2018-01-22T04:20:19.695Z,2.30
2018-01-22T04:21:23.906Z,2.30
2018-01-22T04:22:28.122Z,2.30
2018-01-22T04:23:32.364Z,2.30
2018-01-22T04:24:36.577Z,2.30
2018-01-22T04:25:40.931Z,2.30
2018-01-22T04:26:45.900Z,2.30
2018-01-22T04:27:50.114Z,2.30
2018-01-22T04:28:55.138Z,2.30
2018-01-22T04:29:59.357Z,2.30
2018-01-22T04:31:03.545Z,2.40
2018-01-22T04:32:07.789Z,2.40
2018-01-22T04:33:12.095Z,2.40
2018-01-22T04:34:16.384Z,2.40
2018-01-22T04:35:20.607Z,2.40
2018-01-22T04:36:24.845Z,2.40
2018-01-22T04:37:29.070Z,2.30
2018-01-22T04:38:33.263Z,2.40
2018-01-22T04:39:37.505Z,2.30
2018-01-22T04:40:42.513Z,2.30
2018-01-22T04:41:46.724Z,2.30
2018-01-22T04:42:51.104Z,2.30
2018-01-22T04:43:55.312Z,2.30
2018-01-22T04:44:59.891Z,2.30
2018-01-22T04:46:04.860Z,2.30
2018-01-22T04:47:09.051Z,2.30
2018-01-22T04:48:13.295Z,2.30
2018-01-22T04:49:17.536Z,2.30
2018-01-22T04:50:22.569Z,2.30
2018-01-22T04:51:27.540Z,2.30
2018-01-22T04:52:31.710Z,2.30
2018-01-22T04:53:36.679Z,2.30
2018-01-22T04:54:40.908Z,2.30
2018-01-22T04:55:45.153Z,2.30
2018-01-22T04:56:49.359Z,2.30
2018-01-22T04:57:53.539Z,2.30
2018-01-22T04:58:57.788Z,2.30
2018-01-22T05:00:02.756Z,2.30
2018-01-22T05:01:06.969Z,2.30
2018-01-22T05:02:11.179Z,2.30
2018-01-22T05:03:15.397Z,2.30
2018-01-22T05:04:19.606Z,2.30
2018-01-22T05:05:23.821Z,2.30
2018-01-22T05:06:28.043Z,2.30
2018-01-22T05:07:32.252Z,2.30
2018-01-22T05:08:36.434Z,2.30
2018-01-22T05:09:40.653Z,2.30
2018-01-22T05:10:44.860Z,2.30
2018-01-22T05:11:49.431Z,2.30
2018-01-22T05:12:53.664Z,2.30
2018-01-22T05:13:58.639Z,2.30
2018-01-22T05:15:02.814Z,2.30
2018-01-22T05:16:07.053Z,2.30
2018-01-22T05:17:11.267Z,2.40
2018-01-22T05:18:15.513Z,2.40
2018-01-22T05:19:19.686Z,2.40
2018-01-22T05:20:23.879Z,2.40
2018-01-22T05:21:28.088Z,2.40
2018-01-22T05:22:32.335Z,2.40
2018-01-22T05:23:36.510Z,2.40
2018-01-22T05:24:40.711Z,2.50
2018-01-22T05:25:44.946Z,2.50
2018-01-22T05:26:49.142Z,2.50
2018-01-22T05:27:53.339Z,2.50
2018-01-22T05:28:58.312Z,2.40
2018-01-22T05:30:02.513Z,2.40
2018-01-22T05:31:06.716Z,2.40
2018-01-22T05:32:10.961Z,2.40
2018-01-22T05:33:15.202Z,2.40
2018-01-22T05:34:20.148Z,2.40
2018-01-22T05:35:24.440Z,2.40
2018-01-22T05:36:29.386Z,2.40
2018-01-22T05:37:33.688Z,2.40
2018-01-22T05:38:38.735Z,2.40
2018-01-22T05:39:42.920Z,2.40
2018-01-22T05:40:47.160Z,2.40
2018-01-22T05:41:51.369Z,2.40
2018-01-22T05:42:55.591Z,2.40
2018-01-22T05:43:59.795Z,2.40
2018-01-22T05:45:04.000Z,2.30
2018-01-22T05:46:08.199Z,2.40
2018-01-22T05:47:12.413Z,2.40
2018-01-22T05:48:17.427Z,2.40
2018-01-22T05:49:22.399Z,2.40
2018-01-22T05:50:26.617Z,2.40
2018-01-22T05:51:30.829Z,2.40
2018-01-22T05:52:35.049Z,2.40
2018-01-22T05:53:39.316Z,2.40
2018-01-22T05:54:43.542Z,2.40
2018-01-22T05:55:47.755Z,2.40
2018-01-22T05:57:07.163Z,2.40
2018-01-22T05:58:12.493Z,2.40
2018-01-22T05:59:16.816Z,2.40
2018-01-22T06:00:21.043Z,2.50
2018-01-22T06:01:25.384Z,2.50
2018-01-22T06:02:30.492Z,2.50
2018-01-22T06:03:35.558Z,2.50
2018-01-22T06:04:40.593Z,2.50
2018-01-22T06:05:45.566Z,2.50
2018-01-22T06:06:49.781Z,2.50
2018-01-22T06:07:53.995Z,2.50
2018-01-22T06:08:59.141Z,2.50
2018-01-22T06:10:04.777Z,2.60
2018-01-22T06:11:09.120Z,2.60
2018-01-22T06:12:13.333Z,2.60
2018-01-22T06:13:18.313Z,2.60
2018-01-22T06:14:22.560Z,2.60
2018-01-22T06:15:27.874Z,2.60
2018-01-22T06:16:32.350Z,2.60
2018-01-22T06:17:36.789Z,2.60
2018-01-22T06:18:41.008Z,2.60
2018-01-22T06:19:45.218Z,2.60
2018-01-22T06:20:49.423Z,2.60
2018-01-22T06:21:53.653Z,2.60
2018-01-22T06:22:58.283Z,2.60
2018-01-22T06:24:03.687Z,2.60
2018-01-22T06:25:07.980Z,2.60
2018-01-22T06:26:13.104Z,2.60
2018-01-22T06:27:18.052Z,2.60
2018-01-22T06:28:22.268Z,2.60
2018-01-22T06:29:26.580Z,2.60
2018-01-22T06:30:31.023Z,2.60
2018-01-22T06:31:36.451Z,2.60
2018-01-22T06:32:40.792Z,2.60
2018-01-22T06:33:44.985Z,2.60
2018-01-22T06:34:49.160Z,2.60
2018-01-22T06:35:53.330Z,2.60
2018-01-22T06:36:57.597Z,2.60
2018-01-22T06:38:02.058Z,2.60
2018-01-22T06:39:07.081Z,2.60
2018-01-22T06:40:11.319Z,2.60
2018-01-22T06:41:16.258Z,2.60
2018-01-22T06:42:20.468Z,2.60
2018-01-22T06:43:25.581Z,2.60
2018-01-22T06:44:30.280Z,2.60
2018-01-22T06:45:34.947Z,2.60
2018-01-22T06:46:39.197Z,2.60
2018-01-22T06:47:43.377Z,2.60
2018-01-22T06:48:47.623Z,2.70
2018-01-22T06:49:51.812Z,2.60
2018-01-22T06:50:57.098Z,2.60
2018-01-22T06:52:02.194Z,2.70
2018-01-22T06:53:06.477Z,2.60
2018-01-22T06:54:10.710Z,2.70
2018-01-22T06:55:14.944Z,2.70
2018-01-22T06:56:19.160Z,2.70
2018-01-22T06:57:23.378Z,2.70
2018-01-22T06:58:28.148Z,2.70
2018-01-22T06:59:32.726Z,2.70
2018-01-22T07:00:37.081Z,2.70
2018-01-22T07:01:41.321Z,2.70
2018-01-22T07:02:46.185Z,2.70
2018-01-22T07:03:51.152Z,2.70
2018-01-22T07:04:56.283Z,2.70
2018-01-22T07:06:00.608Z,2.70
2018-01-22T07:07:04.916Z,2.70
2018-01-22T07:08:09.140Z,2.70
2018-01-22T07:09:13.509Z,2.70
2018-01-22T07:10:18.540Z,2.70
2018-01-22T07:11:23.518Z,2.70
2018-01-22T07:12:28.327Z,2.70
2018-01-22T07:13:33.509Z,2.70
2018-01-22T07:14:38.558Z,2.70
2018-01-22T07:15:43.495Z,2.70
2018-01-22T07:16:47.724Z,2.70
2018-01-22T07:17:52.005Z,2.70
2018-01-22T07:18:57.366Z,2.80
2018-01-22T07:20:01.678Z,2.80
2018-01-22T07:21:06.411Z,2.80
2018-01-22T07:22:10.674Z,2.80
2018-01-22T07:23:14.898Z,2.90
2018-01-22T07:24:19.092Z,2.90
2018-01-22T07:25:23.307Z,2.80
2018-01-22T07:26:27.990Z,2.90
2018-01-22T07:27:32.608Z,2.90
2018-01-22T07:28:36.888Z,2.90
2018-01-22T07:29:41.118Z,2.80
2018-01-22T07:30:45.295Z,2.80
2018-01-22T07:31:50.284Z,2.80
2018-01-22T07:32:54.815Z,2.80
2018-01-22T07:33:59.357Z,2.80
2018-01-22T07:35:04.428Z,2.90
2018-01-22T07:36:08.944Z,2.80
2018-01-22T07:37:13.353Z,2.90
2018-01-22T07:38:17.616Z,2.90
2018-01-22T07:39:21.893Z,2.80
2018-01-22T07:40:26.679Z,2.80
2018-01-22T07:41:31.446Z,2.80
2018-01-22T07:42:35.840Z,2.80
2018-01-22T07:43:40.081Z,2.80
2018-01-22T07:44:44.296Z,2.90
2018-01-22T07:45:48.509Z,2.80
2018-01-22T07:46:52.775Z,2.80
2018-01-22T07:47:57.195Z,2.80
2018-01-22T07:49:01.484Z,2.80
2018-01-22T07:50:07.031Z,2.90
2018-01-22T07:51:12.220Z,2.90
2018-01-22T07:52:16.437Z,2.80
2018-01-22T07:53:20.729Z,2.80
2018-01-22T07:54:25.008Z,2.80
2018-01-22T07:55:29.536Z,2.80
2018-01-22T07:56:33.892Z,2.90
2018-01-22T07:57:38.182Z,2.90
2018-01-22T07:58:42.679Z,2.90
2018-01-22T07:59:46.888Z,2.90
2018-01-22T08:00:51.096Z,2.90
2018-01-22T08:01:56.292Z,2.90
2018-01-22T08:03:00.686Z,2.90
2018-01-22T08:04:05.051Z,2.90
2018-01-22T08:05:09.273Z,2.90
2018-01-22T08:06:13.454Z,2.90
2018-01-22T08:07:18.229Z,2.90
2018-01-22T08:08:22.527Z,3.00
2018-01-22T08:09:27.250Z,2.90
2018-01-22T08:10:31.499Z,2.90
2018-01-22T08:11:35.808Z,3.00
2018-01-22T08:12:40.028Z,2.90
2018-01-22T08:13:44.247Z,3.00
2018-01-22T08:14:48.477Z,2.90
2018-01-22T08:15:53.445Z,3.00
2018-01-22T08:16:58.355Z,3.00
2018-01-22T08:18:02.838Z,3.00
2018-01-22T08:19:07.255Z,3.00
2018-01-22T08:20:11.619Z,3.00
2018-01-22T08:21:15.792Z,3.00
2018-01-22T08:22:20.775Z,3.00
2018-01-22T08:23:25.577Z,3.00
2018-01-22T08:24:30.060Z,3.10
2018-01-22T08:25:35.168Z,3.10
2018-01-22T08:26:39.408Z,3.10
2018-01-22T08:27:44.386Z,3.10
2018-01-22T08:28:48.600Z,3.10
2018-01-22T08:29:52.808Z,3.10
2018-01-22T08:30:57.197Z,3.10
2018-01-22T08:32:01.631Z,3.10
2018-01-22T08:33:06.822Z,3.10
2018-01-22T08:34:11.812Z,3.20
2018-01-22T08:35:16.048Z,3.10
2018-01-22T08:36:20.316Z,3.20
2018-01-22T08:37:24.707Z,3.20
2018-01-22T08:38:29.490Z,3.20
2018-01-22T08:39:33.726Z,3.20
2018-01-22T08:40:38.860Z,3.20
2018-01-22T08:41:43.854Z,3.20
2018-01-22T08:42:48.053Z,3.20
2018-01-22T08:43:52.260Z,3.20
2018-01-22T08:44:57.511Z,3.20
2018-01-22T08:46:01.787Z,3.30
2018-01-22T08:47:06.049Z,3.30
2018-01-22T08:48:10.390Z,3.30
2018-01-22T08:49:15.330Z,3.30
2018-01-22T08:50:19.575Z,3.30
2018-01-22T08:51:23.779Z,3.30
2018-01-22T08:52:28.203Z,3.30
2018-01-22T08:53:32.787Z,3.40
2018-01-22T08:54:37.057Z,3.40
2018-01-22T08:55:41.255Z,3.40
2018-01-22T08:56:45.468Z,3.40
2018-01-22T08:57:49.654Z,3.40
2018-01-22T08:58:53.902Z,3.40
2018-01-22T08:59:58.196Z,3.40
2018-01-22T09:01:02.428Z,3.50
2018-01-22T09:02:06.971Z,3.50
2018-01-22T09:03:12.868Z,3.60
2018-01-22T09:04:17.132Z,3.50
2018-01-22T09:05:21.354Z,3.50
2018-01-22T09:06:25.641Z,3.50
2018-01-22T09:07:30.090Z,3.60
2018-01-22T09:08:34.460Z,3.60
2018-01-22T09:09:38.798Z,3.60
2018-01-22T09:10:43.752Z,3.70
2018-01-22T09:11:47.933Z,3.60
2018-01-22T09:12:52.962Z,3.70
2018-01-22T09:13:57.265Z,3.70
2018-01-22T09:15:01.641Z,3.70
2018-01-22T09:16:06.305Z,3.70
2018-01-22T09:17:11.415Z,3.70
2018-01-22T09:18:15.601Z,3.70
2018-01-22T09:19:19.835Z,3.70
2018-01-22T09:20:24.046Z,3.80
2018-01-22T09:21:30.054Z,3.80
2018-01-22T09:22:34.385Z,3.80
2018-01-22T09:23:38.951Z,3.80
2018-01-22T09:24:44.252Z,3.90
2018-01-22T09:25:48.467Z,3.90
2018-01-22T09:26:52.694Z,3.90
2018-01-22T09:27:57.203Z,3.90
2018-01-22T09:29:01.491Z,4.00
2018-01-22T09:30:05.986Z,4.00
2018-01-22T09:31:10.233Z,4.00
2018-01-22T09:32:14.522Z,4.00
2018-01-22T09:33:18.704Z,4.10
2018-01-22T09:34:23.689Z,4.10
2018-01-22T09:35:28.370Z,4.10
2018-01-22T09:36:32.713Z,4.10
2018-01-22T09:37:37.049Z,4.10
2018-01-22T09:38:41.417Z,4.20
2018-01-22T09:39:45.622Z,4.20
2018-01-22T09:40:49.856Z,4.20
2018-01-22T09:41:54.141Z,4.30
2018-01-22T09:42:58.809Z,4.30
2018-01-22T09:44:03.259Z,4.30
2018-01-22T09:45:07.818Z,4.30
2018-01-22T09:46:12.033Z,4.30
2018-01-22T09:47:16.275Z,4.30
2018-01-22T09:48:22.005Z,4.40
2018-01-22T09:49:26.591Z,4.40
2018-01-22T09:50:30.954Z,4.40
2018-01-22T09:51:35.277Z,4.40
2018-01-22T09:52:39.573Z,4.40
2018-01-22T09:53:43.760Z,4.50
2018-01-22T09:54:47.971Z,4.50
2018-01-22T09:55:52.177Z,4.50
2018-01-22T09:56:56.635Z,4.60
2018-01-22T09:58:01.276Z,4.60
2018-01-22T09:59:05.668Z,4.60
2018-01-22T10:00:09.997Z,4.70
2018-01-22T10:01:14.197Z,4.70
2018-01-22T10:02:18.400Z,4.80
2018-01-22T10:03:22.574Z,4.80
2018-01-22T10:04:27.864Z,4.80
2018-01-22T10:05:32.193Z,4.80
2018-01-22T10:06:36.556Z,4.80
2018-01-22T10:07:40.791Z,4.80
2018-01-22T10:08:44.972Z,4.90
2018-01-22T10:09:49.193Z,4.90
2018-01-22T10:10:53.399Z,4.90
2018-01-22T10:11:58.060Z,4.90
2018-01-22T10:13:02.369Z,4.90
2018-01-22T10:14:06.716Z,4.90
2018-01-22T10:15:10.895Z,4.90
2018-01-22T10:16:15.197Z,5.00
2018-01-22T10:17:19.384Z,5.00
2018-01-22T10:18:23.588Z,5.00
2018-01-22T10:19:28.985Z,5.00
2018-01-22T10:20:33.313Z,5.00
2018-01-22T10:21:37.612Z,5.00
2018-01-22T10:22:41.824Z,5.00
2018-01-22T10:23:46.035Z,5.10
2018-01-22T10:24:50.215Z,5.10
2018-01-22T10:25:54.424Z,5.10
2018-01-22T10:26:59.379Z,5.10
2018-01-22T10:28:03.721Z,5.10
2018-01-22T10:29:07.961Z,5.10
2018-01-22T10:30:12.178Z,5.10
2018-01-22T10:31:16.389Z,5.20
2018-01-22T10:32:21.005Z,5.20
2018-01-22T10:33:25.669Z,5.20
2018-01-22T10:34:30.067Z,5.20
2018-01-22T10:35:34.594Z,5.20
2018-01-22T10:36:38.912Z,5.20
2018-01-22T10:37:43.156Z,5.30
2018-01-22T10:38:47.369Z,5.30
2018-01-22T10:39:51.596Z,5.30
2018-01-22T10:40:55.945Z,5.30
2018-01-22T10:42:00.733Z,5.30
2018-01-22T10:43:06.224Z,5.30
2018-01-22T10:44:10.467Z,5.30
2018-01-22T10:45:14.673Z,5.40
2018-01-22T10:46:18.905Z,5.40
2018-01-22T10:47:23.179Z,5.40
2018-01-22T10:48:29.914Z,5.50
2018-01-22T10:49:34.308Z,5.50
2018-01-22T10:50:38.635Z,5.60
2018-01-22T10:51:42.839Z,5.60
2018-01-22T10:52:47.132Z,5.60
2018-01-22T10:53:51.309Z,5.70
2018-01-22T10:54:55.776Z,5.70
2018-01-22T10:56:00.387Z,5.80
2018-01-22T10:57:04.709Z,5.80
2018-01-22T10:58:08.963Z,5.80
2018-01-22T10:59:13.940Z,5.90
2018-01-22T11:00:18.320Z,5.90
2018-01-22T11:01:22.531Z,5.90
2018-01-22T11:02:26.896Z,5.90
2018-01-22T11:03:31.401Z,5.90
2018-01-22T11:04:35.717Z,6.00
2018-01-22T11:05:39.940Z,6.00
2018-01-22T11:06:44.128Z,6.00
2018-01-22T11:07:48.324Z,6.10
2018-01-22T11:08:53.006Z,6.10
2018-01-22T11:09:58.261Z,6.10
2018-01-22T11:11:02.781Z,6.10
2018-01-22T11:12:07.090Z,6.10
2018-01-22T11:13:12.101Z,6.20
2018-01-22T11:14:17.136Z,6.20
2018-01-22T11:15:27.555Z,6.30
2018-01-22T11:16:32.019Z,6.20
2018-01-22T11:17:36.749Z,6.30
2018-01-22T11:18:40.939Z,6.30
2018-01-22T11:19:45.927Z,6.30
2018-01-22T11:20:50.149Z,6.30
2018-01-22T11:21:55.593Z,6.40
2018-01-22T11:23:01.219Z,6.30
2018-01-22T11:24:06.011Z,6.40
2018-01-22T11:25:10.587Z,6.30
2018-01-22T11:26:14.905Z,6.30
2018-01-22T11:27:19.946Z,6.30
2018-01-22T11:28:25.211Z,6.30
2018-01-22T11:29:31.003Z,6.30
2018-01-22T11:30:36.117Z,6.40
2018-01-22T11:31:40.329Z,6.40
2018-01-22T11:32:44.835Z,6.40
2018-01-22T11:33:49.125Z,6.40
2018-01-22T11:34:53.356Z,6.40
2018-01-22T11:35:57.781Z,6.50
2018-01-22T11:37:02.990Z,6.50
2018-01-22T11:38:07.318Z,6.60
2018-01-22T11:39:11.525Z,6.60
2018-01-22T11:40:15.763Z,6.60
2018-01-22T11:41:19.973Z,6.60
2018-01-22T11:42:24.398Z,6.60
2018-01-22T11:43:29.140Z,6.70
2018-01-22T11:44:34.776Z,6.70
2018-01-22T11:45:39.775Z,6.60
2018-01-22T11:46:43.999Z,6.70
2018-01-22T11:47:48.266Z,6.60
2018-01-22T11:48:52.444Z,6.60
2018-01-22T11:49:58.438Z,6.60
2018-01-22T11:51:02.833Z,6.50
2018-01-22T11:52:07.276Z,6.60
2018-01-22T11:53:11.501Z,6.50
2018-01-22T11:54:15.962Z,6.50
2018-01-22T11:55:21.322Z,6.60
2018-01-22T11:56:25.733Z,6.50
2018-01-22T11:57:35.938Z,6.50
2018-01-22T11:58:40.344Z,6.60
2018-01-22T11:59:44.533Z,6.60
2018-01-22T12:00:48.788Z,6.60
2018-01-22T12:01:53.369Z,6.50
2018-01-22T12:02:57.887Z,6.60
2018-01-22T12:04:02.156Z,6.50
2018-01-22T12:05:07.310Z,6.50
2018-01-22T12:06:11.523Z,6.50
2018-01-22T12:07:15.756Z,6.60
2018-01-22T12:08:19.955Z,6.50
2018-01-22T12:09:24.156Z,6.50
2018-01-22T12:10:30.076Z,6.50
2018-01-22T12:11:35.082Z,6.50
2018-01-22T12:12:39.364Z,6.50
2018-01-22T12:13:43.543Z,6.50
2018-01-22T12:14:48.583Z,6.50
2018-01-22T12:15:52.752Z,6.50
2018-01-22T12:16:57.840Z,6.60
2018-01-22T12:18:02.263Z,6.60
2018-01-22T12:19:06.859Z,6.60
2018-01-22T12:20:11.098Z,6.60
2018-01-22T12:21:15.307Z,6.60
2018-01-22T12:22:19.501Z,6.70
2018-01-22T12:23:23.972Z,6.70
2018-01-22T12:24:28.377Z,6.70
2018-01-22T12:25:34.193Z,6.80
2018-01-22T12:26:38.516Z,6.80
2018-01-22T12:27:42.724Z,6.80
2018-01-22T12:28:46.967Z,6.90
2018-01-22T12:29:51.302Z,6.90
2018-01-22T12:30:57.276Z,6.90
2018-01-22T12:32:02.078Z,6.90
2018-01-22T12:33:07.538Z,7.10
2018-01-22T12:34:11.746Z,7.10
2018-01-22T12:35:15.958Z,7.10
2018-01-22T12:36:20.163Z,7.10
2018-01-22T12:37:25.299Z,7.00
2018-01-22T12:38:29.723Z,7.00
2018-01-22T12:39:34.425Z,7.00
2018-01-22T12:40:38.755Z,7.00
2018-01-22T12:41:42.960Z,7.00
2018-01-22T12:42:47.168Z,7.00
2018-01-22T12:43:51.348Z,7.00
2018-01-22T12:44:55.691Z,7.00
2018-01-22T12:46:00.721Z,7.00
2018-01-22T12:47:04.976Z,7.00
2018-01-22T12:48:09.172Z,7.10
2018-01-22T12:49:13.404Z,7.10
2018-01-22T12:50:17.617Z,7.10
2018-01-22T12:51:21.831Z,7.10
2018-01-22T12:52:26.299Z,7.10
2018-01-22T12:53:30.542Z,7.10
2018-01-22T12:54:34.780Z,7.10
2018-01-22T12:55:39.045Z,7.10
2018-01-22T12:56:43.277Z,7.10
2018-01-22T12:57:47.479Z,7.10
2018-01-22T12:58:51.771Z,7.20
2018-01-22T12:59:56.084Z,7.20
2018-01-22T13:01:00.454Z,7.10
2018-01-22T13:02:04.797Z,7.10
2018-01-22T13:03:09.893Z,7.20
2018-01-22T13:04:14.093Z,7.20
2018-01-22T13:05:18.305Z,7.20
2018-01-22T13:06:22.512Z,7.20
2018-01-22T13:07:28.025Z,7.20
2018-01-22T13:08:32.302Z,7.30
2018-01-22T13:09:36.875Z,7.20
2018-01-22T13:10:41.075Z,7.30
2018-01-22T13:11:45.239Z,7.30
2018-01-22T13:12:49.557Z,7.20
2018-01-22T13:13:54.931Z,7.20
2018-01-22T13:14:59.539Z,7.20
2018-01-22T13:16:04.025Z,7.20
2018-01-22T13:17:08.237Z,7.20
2018-01-22T13:18:12.445Z,7.20
2018-01-22T13:19:16.718Z,7.20
2018-01-22T13:20:20.903Z,7.20
2018-01-22T13:21:25.122Z,7.20
2018-01-22T13:22:29.413Z,7.20
2018-01-22T13:23:34.451Z,7.10
2018-01-22T13:24:38.700Z,7.20
2018-01-22T13:25:42.913Z,7.10
2018-01-22T13:26:47.459Z,7.20
2018-01-22T13:27:51.807Z,7.10
2018-01-22T13:28:56.412Z,7.10
2018-01-22T13:30:00.833Z,7.10
2018-01-22T13:31:05.059Z,7.10
2018-01-22T13:32:09.359Z,7.10
2018-01-22T13:33:13.573Z,7.10
2018-01-22T13:34:17.775Z,7.10
2018-01-22T13:35:22.760Z,7.10
2018-01-22T13:36:27.713Z,7.10
2018-01-22T13:37:32.660Z,7.10
2018-01-22T13:38:37.285Z,7.10
2018-01-22T13:39:41.518Z,7.10
2018-01-22T13:40:51.315Z,7.10
2018-01-22T13:41:56.369Z,7.20
2018-01-22T13:43:00.929Z,7.20
2018-01-22T13:44:05.388Z,7.20
2018-01-22T13:45:09.826Z,7.20
2018-01-22T13:46:14.118Z,7.20
2018-01-22T13:47:19.132Z,7.20
2018-01-22T13:48:23.342Z,7.20
2018-01-22T13:49:27.515Z,7.30
2018-01-22T13:50:32.625Z,7.20
2018-01-22T13:51:36.833Z,7.20
2018-01-22T13:52:41.022Z,7.20
2018-01-22T13:53:46.011Z,7.30
2018-01-22T13:54:50.229Z,7.20
2018-01-22T13:55:54.499Z,7.30
2018-01-22T13:56:58.917Z,7.20
2018-01-22T13:58:03.164Z,7.30
2018-01-22T13:59:07.385Z,7.30
2018-01-22T14:00:11.632Z,7.20
2018-01-22T14:01:16.575Z,7.20
2018-01-22T14:02:20.746Z,7.20
2018-01-22T14:03:24.969Z,7.20
2018-01-22T14:04:29.371Z,7.20
2018-01-22T14:05:33.589Z,7.20
2018-01-22T14:06:38.630Z,7.10
2018-01-22T14:07:43.624Z,7.10
2018-01-22T14:08:48.192Z,7.10
2018-01-22T14:09:52.396Z,7.20
2018-01-22T14:10:58.097Z,7.10
2018-01-22T14:12:02.382Z,7.10
2018-01-22T14:13:06.701Z,7.10
2018-01-22T14:14:10.918Z,7.10
2018-01-22T14:15:15.109Z,7.10
2018-01-22T14:16:19.333Z,7.10
2018-01-22T14:17:23.554Z,7.10
2018-01-22T14:18:30.227Z,7.10